Cathy Golding — WDE9813 — position and weather

sailwx.info

Track history (hours):
 
Tides and Currents Weather Stations Pressure Air Temp Water Temp Dewpoint Dewpoint Depression Visibility Wind Speed Wind Dir Waves Ship Positions

Cathy Golding

Owner: GOLDING BARGE LINE, INC, VICKSBURG, MS. More information available from US FCC via Universal Licensing System and Coast Guard Vessel Documentation Center.

Last reported at 2018-May-14 06:47 UTC. Time now 2018-May-24 23:32 UTC.
Position N 32°45' W 091°09'.
Warning: this ship's position is 10 days out of date.

Length 210 m; draft 3 m.

Type: . MMSI: 367421590.

Date/timePositionNaut miles runAvg speedWind from/ knotsBaromVisibWave heightAir tempDewpointWater temp
2018-May-14 06:47N 32°45' W 091°09'4 4.9
2018-May-14 06:00N 32°44' W 091°05'7 2.5
2018-May-14 03:08N 32°38' W 091°09'1 5.2
2018-May-14 03:00N 32°37' W 091°09'0 0.8
2018-May-14 02:30N 32°37' W 091°09'0 0.0
2018-May-14 02:00N 32°37' W 091°09'1 2.6
2018-May-14 01:30N 32°36' W 091°08'2 4.8
2018-May-14 01:00N 32°34' W 091°06'4 4.5
2018-May-14 00:06N 32°30' W 091°07'0 3.2
2018-May-13 23:58N 32°30' W 091°07'2 4.7
2018-May-13 23:30N 32°28' W 091°06'2 4.9
2018-May-13 23:00N 32°26' W 091°03'2 4.8
2018-May-13 22:30N 32°26' W 091°01'2 4.1
2018-May-13 22:00N 32°24' W 090°60'3 5.2
2018-May-13 21:30N 32°21' W 091°00'2 4.9
2018-May-13 21:00N 32°21' W 090°57'2 4.5
2018-May-13 20:30N 32°20' W 090°55'2 3.3
2018-May-13 20:00N 32°19' W 090°55'0 0.8
2018-May-13 19:30N 32°18' W 090°55'0 0.0
2018-May-13 19:00N 32°18' W 090°55'0 0.1
2018-May-13 18:30N 32°18' W 090°55'2 4.1
2018-May-13 18:00N 32°17' W 090°57'2 4.5
2018-May-13 17:30N 32°15' W 090°59'2 4.7
2018-May-13 16:59N 32°13' W 090°59'3 4.4
2018-May-13 16:23N 32°10' W 090°60'2 4.2
2018-May-13 16:00N 32°09' W 091°00'2 3.8
2018-May-13 15:30N 32°07' W 091°02'4 5.2
2018-May-13 14:47N 32°08' W 091°06'  
2018-May-08 21:40N 32°07' W 091°07'1 7.2
2018-May-08 21:30N 32°08' W 091°06'4 8.7
2018-May-08 21:00N 32°08' W 091°01'5 9.6
2018-May-08 20:30N 32°13' W 090°59'4 8.7
2018-May-08 20:00N 32°17' W 090°57'4 8.2
2018-May-08 19:30N 32°20' W 090°54'5 9.2
2018-May-08 19:00N 32°21' W 090°59'4 8.0
2018-May-08 18:30N 32°25' W 091°00'5 9.3
2018-May-08 18:00N 32°27' W 091°05'  
2018-May-05 23:44N 38°40' W 090°11'4 1.6
2018-May-05 21:12N 38°44' W 090°10'1 3.1
2018-May-05 21:00N 38°45' W 090°09'2 4.6
2018-May-05 20:29N 38°47' W 090°08'4 7.8
2018-May-05 20:00N 38°50' W 090°06'1 2.4
2018-May-05 19:29N 38°51' W 090°08'0 0.0
2018-May-05 19:00N 38°51' W 090°08'0 0.2
2018-May-05 18:30N 38°51' W 090°07'1 2.6
2018-May-05 18:00N 38°50' W 090°06'0 0.6
2018-May-05 17:28N 38°50' W 090°06'0 0.1
2018-May-05 14:12N 38°50' W 090°06'0 0.0
2018-May-05 14:00N 38°50' W 090°06'0 0.0
2018-May-05 13:30N 38°50' W 090°06'0 0.0
2018-May-05 13:00N 38°50' W 090°06'0 0.0
2018-May-05 12:30N 38°50' W 090°06'0 0.0
2018-May-05 12:00N 38°50' W 090°06'0 0.0
2018-May-05 11:30N 38°50' W 090°06'0 0.0
2018-May-05 11:00N 38°50' W 090°06'0 0.0
2018-May-05 10:30N 38°50' W 090°06'0 0.0
2018-May-05 10:00N 38°50' W 090°06'0 0.0
2018-May-05 09:30N 38°50' W 090°06'0 0.0
2018-May-05 09:00N 38°50' W 090°06'0 0.0
2018-May-05 08:30N 38°50' W 090°06'0 0.0
2018-May-05 08:00N 38°50' W 090°06'0 0.0
2018-May-05 07:30N 38°50' W 090°06'0 0.0
2018-May-05 07:00N 38°50' W 090°06'0 0.0
2018-May-05 06:30N 38°50' W 090°06'0 0.0
2018-May-05 06:00N 38°50' W 090°06'0 0.0
2018-May-05 05:30N 38°50' W 090°06'0 0.0
2018-May-05 05:00N 38°50' W 090°06'0 0.0
2018-May-05 04:30N 38°50' W 090°06'0 0.0
2018-May-04 21:46N 38°50' W 090°06'0 0.0
2018-May-04 21:30N 38°50' W 090°06'0 0.0
2018-May-04 21:00N 38°50' W 090°06'0 0.5
2018-May-04 20:24N 38°50' W 090°06'0 0.0
2018-May-04 20:00N 38°50' W 090°06'3 5.4
2018-May-04 19:31N 38°52' W 090°09'0 0.0
2018-May-04 19:00N 38°52' W 090°09'0 0.0
2018-May-04 18:30N 38°52' W 090°09'1 2.9
2018-May-04 18:00N 38°51' W 090°07'1 2.6
2018-May-04 17:29N 38°50' W 090°06'0 0.6
2018-May-04 17:00N 38°50' W 090°06'0 0.0
2018-May-04 16:30N 38°50' W 090°06'0 0.0
2018-May-04 16:00N 38°50' W 090°06'0 0.2
2018-May-04 15:30N 38°50' W 090°06'2 3.8
2018-May-04 15:00N 38°52' W 090°08'1 1.6
2018-May-04 14:30N 38°51' W 090°07'1 2.1
2018-May-04 14:00N 38°50' W 090°06'0 0.0
2018-May-04 13:30N 38°50' W 090°06'0 0.0
2018-May-04 13:00N 38°50' W 090°06'0 0.0
2018-May-04 12:30N 38°50' W 090°06'0 0.0
2018-May-04 12:00N 38°50' W 090°06'0 0.0
2018-May-04 11:30N 38°50' W 090°06'0 0.0
2018-May-04 11:00N 38°50' W 090°06'0 0.0
2018-May-04 10:30N 38°50' W 090°06'0 0.0
2018-May-04 10:00N 38°50' W 090°06'0 0.0
2018-May-04 09:30N 38°50' W 090°06'0 0.0
2018-May-04 09:00N 38°50' W 090°06'0 0.0
2018-May-04 08:30N 38°50' W 090°06'0 0.0
2018-May-04 08:00N 38°50' W 090°06'0 0.0
2018-May-04 07:30N 38°50' W 090°06'0 0.0
2018-May-04 07:00N 38°50' W 090°06'  
Track history (hours):
 
Tides and Currents Weather Stations Pressure Air Temp Water Temp Dewpoint Dewpoint Depression Visibility Wind Speed Wind Dir Waves Ship Positions

Cathy Golding

Owner: GOLDING BARGE LINE, INC, VICKSBURG, MS. More information available from US FCC via Universal Licensing System and Coast Guard Vessel Documentation Center.

Last reported at 2018-May-14 06:47 UTC. Time now 2018-May-24 23:32 UTC.
Position N 32°45' W 091°09'.
Warning: this ship's position is 10 days out of date.

Length 210 m; draft 3 m.

Type: . MMSI: 367421590.

Date/timePositionNaut miles runAvg speedWind from/ knotsBaromVisibWave heightAir tempDewpointWater temp
2018-May-14 06:47N 32°45' W 091°09'4 4.9
2018-May-14 06:00N 32°44' W 091°05'7 2.5
2018-May-14 03:08N 32°38' W 091°09'1 5.2
2018-May-14 03:00N 32°37' W 091°09'0 0.8
2018-May-14 02:30N 32°37' W 091°09'0 0.0
2018-May-14 02:00N 32°37' W 091°09'1 2.6
2018-May-14 01:30N 32°36' W 091°08'2 4.8
2018-May-14 01:00N 32°34' W 091°06'4 4.5
2018-May-14 00:06N 32°30' W 091°07'0 3.2
2018-May-13 23:58N 32°30' W 091°07'2 4.7
2018-May-13 23:30N 32°28' W 091°06'2 4.9
2018-May-13 23:00N 32°26' W 091°03'2 4.8
2018-May-13 22:30N 32°26' W 091°01'2 4.1
2018-May-13 22:00N 32°24' W 090°60'3 5.2
2018-May-13 21:30N 32°21' W 091°00'2 4.9
2018-May-13 21:00N 32°21' W 090°57'2 4.5
2018-May-13 20:30N 32°20' W 090°55'2 3.3
2018-May-13 20:00N 32°19' W 090°55'0 0.8
2018-May-13 19:30N 32°18' W 090°55'0 0.0
2018-May-13 19:00N 32°18' W 090°55'0 0.1
2018-May-13 18:30N 32°18' W 090°55'2 4.1
2018-May-13 18:00N 32°17' W 090°57'2 4.5
2018-May-13 17:30N 32°15' W 090°59'2 4.7
2018-May-13 16:59N 32°13' W 090°59'3 4.4
2018-May-13 16:23N 32°10' W 090°60'2 4.2
2018-May-13 16:00N 32°09' W 091°00'2 3.8
2018-May-13 15:30N 32°07' W 091°02'4 5.2
2018-May-13 14:47N 32°08' W 091°06'  
2018-May-08 21:40N 32°07' W 091°07'1 7.2
2018-May-08 21:30N 32°08' W 091°06'4 8.7
2018-May-08 21:00N 32°08' W 091°01'5 9.6
2018-May-08 20:30N 32°13' W 090°59'4 8.7
2018-May-08 20:00N 32°17' W 090°57'4 8.2
2018-May-08 19:30N 32°20' W 090°54'5 9.2
2018-May-08 19:00N 32°21' W 090°59'4 8.0
2018-May-08 18:30N 32°25' W 091°00'5 9.3
2018-May-08 18:00N 32°27' W 091°05'  
2018-May-05 23:44N 38°40' W 090°11'4 1.6
2018-May-05 21:12N 38°44' W 090°10'1 3.1
2018-May-05 21:00N 38°45' W 090°09'2 4.6
2018-May-05 20:29N 38°47' W 090°08'4 7.8
2018-May-05 20:00N 38°50' W 090°06'1 2.4
2018-May-05 19:29N 38°51' W 090°08'0 0.0
2018-May-05 19:00N 38°51' W 090°08'0 0.2
2018-May-05 18:30N 38°51' W 090°07'1 2.6
2018-May-05 18:00N 38°50' W 090°06'0 0.6
2018-May-05 17:28N 38°50' W 090°06'0 0.1
2018-May-05 14:12N 38°50' W 090°06'0 0.0
2018-May-05 14:00N 38°50' W 090°06'0 0.0
2018-May-05 13:30N 38°50' W 090°06'0 0.0
2018-May-05 13:00N 38°50' W 090°06'0 0.0
2018-May-05 12:30N 38°50' W 090°06'0 0.0
2018-May-05 12:00N 38°50' W 090°06'0 0.0
2018-May-05 11:30N 38°50' W 090°06'0 0.0
2018-May-05 11:00N 38°50' W 090°06'0 0.0
2018-May-05 10:30N 38°50' W 090°06'0 0.0
2018-May-05 10:00N 38°50' W 090°06'0 0.0
2018-May-05 09:30N 38°50' W 090°06'0 0.0
2018-May-05 09:00N 38°50' W 090°06'0 0.0
2018-May-05 08:30N 38°50' W 090°06'0 0.0
2018-May-05 08:00N 38°50' W 090°06'0 0.0
2018-May-05 07:30N 38°50' W 090°06'0 0.0
2018-May-05 07:00N 38°50' W 090°06'0 0.0
2018-May-05 06:30N 38°50' W 090°06'0 0.0
2018-May-05 06:00N 38°50' W 090°06'0 0.0
2018-May-05 05:30N 38°50' W 090°06'0 0.0
2018-May-05 05:00N 38°50' W 090°06'0 0.0
2018-May-05 04:30N 38°50' W 090°06'0 0.0
2018-May-04 21:46N 38°50' W 090°06'0 0.0
2018-May-04 21:30N 38°50' W 090°06'0 0.0
2018-May-04 21:00N 38°50' W 090°06'0 0.5
2018-May-04 20:24N 38°50' W 090°06'0 0.0
2018-May-04 20:00N 38°50' W 090°06'3 5.4
2018-May-04 19:31N 38°52' W 090°09'0 0.0
2018-May-04 19:00N 38°52' W 090°09'0 0.0
2018-May-04 18:30N 38°52' W 090°09'1 2.9
2018-May-04 18:00N 38°51' W 090°07'1 2.6
2018-May-04 17:29N 38°50' W 090°06'0 0.6
2018-May-04 17:00N 38°50' W 090°06'0 0.0
2018-May-04 16:30N 38°50' W 090°06'0 0.0
2018-May-04 16:00N 38°50' W 090°06'0 0.2
2018-May-04 15:30N 38°50' W 090°06'2 3.8
2018-May-04 15:00N 38°52' W 090°08'1 1.6
2018-May-04 14:30N 38°51' W 090°07'1 2.1
2018-May-04 14:00N 38°50' W 090°06'0 0.0
2018-May-04 13:30N 38°50' W 090°06'0 0.0
2018-May-04 13:00N 38°50' W 090°06'0 0.0
2018-May-04 12:30N 38°50' W 090°06'0 0.0
2018-May-04 12:00N 38°50' W 090°06'0 0.0
2018-May-04 11:30N 38°50' W 090°06'0 0.0
2018-May-04 11:00N 38°50' W 090°06'0 0.0
2018-May-04 10:30N 38°50' W 090°06'0 0.0
2018-May-04 10:00N 38°50' W 090°06'0 0.0
2018-May-04 09:30N 38°50' W 090°06'0 0.0
2018-May-04 09:00N 38°50' W 090°06'0 0.0
2018-May-04 08:30N 38°50' W 090°06'0 0.0
2018-May-04 08:00N 38°50' W 090°06'0 0.0
2018-May-04 07:30N 38°50' W 090°06'0 0.0
2018-May-04 07:00N 38°50' W 090°06'  

Dump ship's entire track history